Time;durP1;ratioP1;P1;durP2;ratioP2;P2;SDS_P1;SDS_P2;PMS_P1;PMS_P2;Temp;Humidity;BMP_temperature;BMP_pressure;BME280_temperature;BME280_humidity;BME280_pressure;Samples;Min_cycle;Max_cycle;Signal;HPM_P1;HPM_P2
2022/04/05 00:01:44;;;;;;;11.12;6.87;;;;;;;-2.02;71.67;98750.23;1663400;86;21284;-71
2022/04/05 00:04:18;;;;;;;10.30;6.80;;;;;;;-2.02;71.72;98754.27;1659116;85;21479;-70
2022/04/05 00:06:48;;;;;;;13.58;6.97;;;;;;;-2.00;71.51;98752.68;1647603;86;21464;-71
2022/04/05 00:09:17;;;;;;;13.25;7.08;;;;;;;-2.00;71.45;98749.98;1665597;85;21000;-71
2022/04/05 00:11:44;;;;;;;13.58;6.22;;;;;;;-1.99;71.26;98750.27;1683248;84;20981;-71
2022/04/05 00:14:11;;;;;;;11.68;7.17;;;;;;;-1.98;71.33;98747.05;1678600;85;21738;-71
2022/04/05 00:16:38;;;;;;;12.93;6.35;;;;;;;-1.99;71.38;98744.89;1676203;84;20917;-71
2022/04/05 00:19:06;;;;;;;15.35;6.65;;;;;;;-2.01;71.34;98737.61;1678524;85;20961;-71
2022/04/05 00:21:34;;;;;;;12.18;6.53;;;;;;;-2.02;71.33;98743.52;1675081;85;20979;-71
2022/04/05 00:24:01;;;;;;;13.13;6.87;;;;;;;-2.03;71.34;98733.02;1672487;85;20909;-73
2022/04/05 00:26:28;;;;;;;15.25;7.28;;;;;;;-2.03;71.29;98733.02;1673898;84;21199;-73
2022/04/05 00:28:55;;;;;;;16.37;7.10;;;;;;;-2.04;71.39;98733.55;1653842;86;21580;-74
2022/04/05 00:31:23;;;;;;;13.60;6.37;;;;;;;-2.06;71.47;98730.30;1674170;84;21445;-74
2022/04/05 00:33:51;;;;;;;15.00;6.97;;;;;;;-2.06;71.47;98727.61;1666963;85;21001;-72
2022/04/05 00:36:18;;;;;;;17.42;7.15;;;;;;;-2.08;71.52;98721.67;1669673;85;21006;-72
2022/04/05 00:38:45;;;;;;;12.70;6.58;;;;;;;-2.08;71.42;98711.45;1682489;84;22104;-72
2022/04/05 00:41:12;;;;;;;15.00;7.50;;;;;;;-2.07;71.55;98709.03;1685542;84;20947;-70
2022/04/05 00:43:40;;;;;;;11.68;7.08;;;;;;;-2.07;71.64;98709.84;1683126;85;20885;-71
2022/04/05 00:46:09;;;;;;;10.90;6.58;;;;;;;-2.10;71.57;98700.94;1668484;85;21219;-71
2022/04/05 00:48:55;;;;;;;13.68;6.65;;;;;;;-2.10;71.57;98702.28;1675097;85;21000;-71
2022/04/05 00:51:23;;;;;;;12.63;7.03;;;;;;;-2.12;71.43;98696.34;1675698;84;21875;-71
2022/04/05 00:53:57;;;;;;;13.30;6.00;;;;;;;-2.11;71.31;98692.59;1668213;84;20938;-73
2022/04/05 00:56:24;;;;;;;15.98;6.75;;;;;;;-2.10;71.10;98688.03;1671843;85;20946;-72
2022/04/05 00:58:53;;;;;;;12.80;6.28;;;;;;;-2.09;70.78;98686.42;1668064;85;21020;-72
2022/04/05 01:01:22;;;;;;;15.53;6.60;;;;;;;-2.08;70.40;98684.02;1667921;85;20865;-72
2022/04/05 01:03:51;;;;;;;12.90;6.62;;;;;;;-2.06;70.32;98682.42;1684670;84;21911;-72
2022/04/05 01:06:28;;;;;;;14.18;7.42;;;;;;;-2.07;70.29;98680.27;1678860;84;20992;-72
2022/04/05 01:08:56;;;;;;;14.38;7.20;;;;;;;-2.08;70.18;98677.83;1661931;85;20957;-71
2022/04/05 01:11:23;;;;;;;15.43;7.55;;;;;;;-2.11;70.04;98676.45;1670767;85;21091;-72
2022/04/05 01:13:54;;;;;;;12.85;6.72;;;;;;;-2.12;69.73;98670.80;1676022;84;20949;-72
2022/04/05 01:16:21;;;;;;;11.18;6.00;;;;;;;-2.12;69.70;98667.30;1666812;85;21303;-72
2022/04/05 01:18:48;;;;;;;10.85;6.60;;;;;;;-2.14;69.59;98667.55;1670947;85;20901;-72
2022/04/05 01:21:16;;;;;;;15.35;7.42;;;;;;;-2.14;69.47;98662.71;1663510;86;20945;-72
2022/04/05 01:24:06;;;;;;;14.47;8.25;;;;;;;-2.16;69.46;98658.12;1669751;85;20925;-71
2022/04/05 01:26:43;;;;;;;14.35;7.72;;;;;;;-2.17;69.31;98658.66;1672273;85;21567;-71
2022/04/05 01:29:10;;;;;;;12.90;6.53;;;;;;;-2.18;69.33;98655.69;1680400;84;21266;-71
2022/04/05 01:31:45;;;;;;;13.15;7.10;;;;;;;-2.20;69.35;98648.41;1680298;84;21076;-69
2022/04/05 01:34:14;;;;;;;13.30;7.25;;;;;;;-2.23;69.47;98638.16;1679245;84;21566;-70
2022/04/05 01:36:44;;;;;;;17.73;7.08;;;;;;;-2.26;69.55;98638.66;1678570;84;20924;-69
2022/04/05 01:39:17;;;;;;;13.98;7.45;;;;;;;-2.29;69.63;98631.11;1680264;84;21003;-76
2022/04/05 01:41:45;;;;;;;16.40;7.28;;;;;;;-2.31;69.66;98633.24;1684330;84;21244;-77
2022/04/05 01:44:13;;;;;;;16.23;6.95;;;;;;;-2.32;69.83;98625.46;1683290;84;21459;-76
2022/04/05 01:46:40;;;;;;;17.98;8.28;;;;;;;-2.34;69.88;98636.47;1675829;85;21035;-73
2022/04/05 01:49:09;;;;;;;15.75;8.10;;;;;;;-2.36;70.12;98634.03;1676937;84;21012;-72
2022/04/05 01:51:37;;;;;;;17.98;8.50;;;;;;;-2.39;70.34;98623.79;1676654;84;21008;-73
2022/04/05 01:54:07;;;;;;;16.50;8.85;;;;;;;-2.40;70.53;98627.55;1681933;84;21144;-73
2022/04/05 01:56:47;;;;;;;15.98;8.58;;;;;;;-2.40;70.72;98621.36;1684482;84;21903;-71
2022/04/05 01:59:19;;;;;;;19.15;9.65;;;;;;;-2.41;70.91;98618.39;1681031;84;21032;-71
2022/04/05 02:01:47;;;;;;;;;;;;;;;-2.42;71.15;98612.73;1683548;84;20964;-71
2022/04/05 02:04:13;;;;;;;19.52;9.18;;;;;;;-2.44;71.30;98608.95;1685084;84;20115;-75
2022/04/05 02:06:41;;;;;;;17.02;9.15;;;;;;;-2.44;71.59;98602.77;1679401;84;22183;-74
2022/04/05 02:09:08;;;;;;;19.67;9.98;;;;;;;-2.44;71.82;98601.42;1680814;84;20901;-74
2022/04/05 02:11:37;;;;;;;21.68;9.45;;;;;;;-2.43;71.97;98603.86;1682982;85;21007;-74
2022/04/05 02:14:11;;;;;;;19.15;9.08;;;;;;;-2.42;72.07;98600.64;1676420;85;21011;-75
2022/04/05 02:16:39;;;;;;;21.90;9.95;;;;;;;-2.41;72.35;98601.73;1682040;85;21439;-75
2022/04/05 02:19:07;;;;;;;16.05;8.95;;;;;;;-2.40;72.51;98597.97;1679822;84;21142;-74
2022/04/05 02:21:35;;;;;;;16.25;9.70;;;;;;;-2.37;72.65;98593.97;1682751;84;21602;-74
2022/04/05 02:24:04;;;;;;;19.25;9.85;;;;;;;-2.36;72.76;98590.22;1678046;85;20928;-74
2022/04/05 02:26:32;;;;;;;20.17;10.03;;;;;;;-2.35;72.89;98588.61;1682477;84;20888;-71
2022/04/05 02:29:01;;;;;;;14.05;8.50;;;;;;;-2.36;73.20;98590.22;1683219;85;20956;-73
2022/04/05 02:31:30;;;;;;;15.13;8.90;;;;;;;-2.35;73.39;98579.73;1676117;84;21456;-72
2022/04/05 02:33:57;;;;;;;16.87;10.23;;;;;;;-2.35;73.47;98582.43;1678478;84;20952;-72
2022/04/05 02:36:26;;;;;;;16.95;9.50;;;;;;;-2.37;73.63;98577.30;1699021;82;20975;-72
2022/04/05 02:38:53;;;;;;;25.32;10.72;;;;;;;-2.36;73.81;98573.55;1710354;82;21022;-72
2022/04/05 02:41:22;;;;;;;19.25;10.38;;;;;;;-2.37;74.12;98568.43;1743076;80;21061;-72
2022/04/05 02:43:51;;;;;;;17.95;10.03;;;;;;;-2.38;74.30;98566.28;1735555;80;21243;-72
2022/04/05 02:46:18;;;;;;;19.57;9.28;;;;;;;-2.39;74.47;98566.00;1718446;81;21472;-71
2022/04/05 02:48:46;;;;;;;18.00;9.95;;;;;;;-2.39;74.71;98561.97;1733301;82;21571;-71
2022/04/05 02:51:15;;;;;;;18.32;10.18;;;;;;;-2.40;74.86;98554.16;1717415;82;21569;-77
2022/04/05 02:53:42;;;;;;;18.67;10.93;;;;;;;-2.43;75.23;98556.02;1735508;80;20893;-77
2022/04/05 02:56:10;;;;;;;19.95;10.38;;;;;;;-2.44;75.38;98555.73;1739102;80;21263;-71
2022/04/05 02:58:38;;;;;;;21.23;11.03;;;;;;;-2.47;75.77;98548.99;1729810;81;20994;-70
2022/04/05 03:01:06;;;;;;;21.82;10.93;;;;;;;-2.48;76.02;98552.75;1742727;81;20976;-70
2022/04/05 03:03:34;;;;;;;25.65;11.53;;;;;;;-2.48;76.41;98547.91;1712190;82;21409;-70
2022/04/05 03:06:03;;;;;;;25.40;11.08;;;;;;;-2.48;76.57;98554.63;1712669;82;21534;-71
2022/04/05 03:08:31;;;;;;;21.25;11.08;;;;;;;-2.48;76.99;98548.72;1714178;82;21203;-73
2022/04/05 03:11:01;;;;;;;19.80;10.25;;;;;;;-2.48;77.13;98551.41;1711984;83;20885;-72
2022/04/05 03:13:31;;;;;;;23.12;11.80;;;;;;;-2.49;77.36;98544.94;1711032;81;20909;-74
2022/04/05 03:15:59;;;;;;;21.30;12.23;;;;;;;-2.49;77.55;98539.56;1713780;82;21001;-72
2022/04/05 03:18:27;;;;;;;22.13;10.10;;;;;;;-2.49;77.89;98540.38;1712713;82;21146;-70
2022/04/05 03:20:54;;;;;;;22.98;11.38;;;;;;;-2.48;78.24;98533.12;1697901;83;21636;-77
2022/04/05 03:23:21;;;;;;;21.27;10.15;;;;;;;-2.46;78.64;98528.30;1670648;84;20885;-76
2022/04/05 03:25:49;;;;;;;21.10;10.95;;;;;;;-2.43;79.16;98529.95;1661684;85;21068;-76
2022/04/05 03:28:18;;;;;;;22.87;12.45;;;;;;;-2.38;79.14;98525.95;1694732;83;21016;-70
2022/04/05 03:30:47;;;;;;;25.17;11.50;;;;;;;-2.33;79.31;98527.88;1664121;84;20985;-70
2022/04/05 03:33:15;;;;;;;21.57;11.05;;;;;;;-2.28;79.38;98514.45;1708044;82;21285;-70
2022/04/05 03:35:42;;;;;;;20.88;11.40;;;;;;;-2.26;79.31;98520.91;1725217;81;20956;-70
2022/04/05 03:38:10;;;;;;;23.57;12.28;;;;;;;-2.25;79.53;98519.84;1728183;82;21110;-71
2022/04/05 03:40:37;;;;;;;24.25;11.45;;;;;;;-2.23;79.60;98517.17;1722153;81;21020;-75
2022/04/05 03:43:07;;;;;;;24.00;12.13;;;;;;;-2.21;79.71;98511.53;1724737;82;21054;-76
2022/04/05 03:45:35;;;;;;;19.40;11.68;;;;;;;-2.22;79.97;98508.04;1728982;81;21159;-76
2022/04/05 03:48:04;;;;;;;21.73;11.63;;;;;;;-2.20;80.03;98506.44;1691839;83;20977;-77
2022/04/05 03:50:31;;;;;;;19.95;11.65;;;;;;;-2.18;80.29;98499.73;1728615;82;21080;-77
2022/04/05 03:52:59;;;;;;;26.57;12.37;;;;;;;-2.15;80.40;98499.75;1712465;82;21010;-76
2022/04/05 03:55:28;;;;;;;20.55;12.45;;;;;;;-2.13;80.53;98496.27;1721621;82;20905;-75
2022/04/05 03:57:56;;;;;;;23.70;13.25;;;;;;;-2.10;80.58;98489.84;1727630;81;21813;-76
2022/04/05 04:00:23;;;;;;;26.42;12.98;;;;;;;-2.08;80.70;98489.05;1738601;82;20945;-77
2022/04/05 04:02:53;;;;;;;23.55;12.63;;;;;;;-2.05;80.72;98483.16;1729489;82;20901;-73
2022/04/05 04:05:21;;;;;;;23.62;12.00;;;;;;;-2.01;80.72;98484.25;1726329;81;21547;-72
2022/04/05 04:07:50;;;;;;;22.95;12.30;;;;;;;-1.98;80.79;98489.64;1727236;82;20884;-72
2022/04/05 04:10:20;;;;;;;20.92;11.45;;;;;;;-1.95;80.82;98487.78;1758779;80;21135;-72
2022/04/05 04:12:49;;;;;;;24.80;12.70;;;;;;;-1.91;80.82;98481.34;1728468;82;20937;-72
2022/04/05 04:15:17;;;;;;;24.05;12.37;;;;;;;-1.88;80.82;98482.17;1719993;82;21062;-70
2022/04/05 04:17:45;;;;;;;22.45;12.95;;;;;;;-1.86;80.77;98486.22;1722216;82;20995;-72
2022/04/05 04:20:13;;;;;;;26.00;12.07;;;;;;;-1.82;80.75;98480.59;1688862;83;20972;-73
2022/04/05 04:22:40;;;;;;;29.98;12.25;;;;;;;-1.77;80.74;98479.81;1686210;85;22056;-73
2022/04/05 04:25:16;;;;;;;28.47;13.70;;;;;;;-1.74;80.55;98476.06;1730775;82;21471;-73
2022/04/05 04:27:43;;;;;;;24.35;14.03;;;;;;;-1.69;80.58;98473.91;1732933;82;20853;-74
2022/04/05 04:30:16;;;;;;;24.18;12.43;;;;;;;-1.66;80.53;98471.50;1669286;84;21476;-74
2022/04/05 04:32:46;;;;;;;31.35;13.62;;;;;;;-1.62;80.29;98473.12;1665469;83;21004;-74
2022/04/05 04:35:14;;;;;;;23.80;12.53;;;;;;;-1.58;80.31;98474.77;1725388;82;21165;-71
2022/04/05 04:37:48;;;;;;;24.20;12.88;;;;;;;-1.55;80.25;98483.12;1720601;82;21165;-71
2022/04/05 04:40:22;;;;;;;21.25;12.85;;;;;;;-1.51;80.31;98482.87;1697206;84;20976;-74
2022/04/05 04:42:54;;;;;;;26.68;12.60;;;;;;;-1.45;80.33;98478.31;1700623;82;20948;-73
2022/04/05 04:45:23;;;;;;;25.55;12.63;;;;;;;-1.39;80.11;98482.11;1728302;81;21448;-73
2022/04/05 04:47:51;;;;;;;28.85;13.60;;;;;;;-1.31;80.02;98477.29;1670426;84;20897;-75
2022/04/05 04:50:24;;;;;;;24.47;13.75;;;;;;;-1.23;79.74;98476.78;1659682;84;20951;-71
2022/04/05 04:52:55;;;;;;;24.67;13.18;;;;;;;-1.17;79.60;98477.06;1671042;84;20980;-75
2022/04/05 04:55:28;;;;;;;22.42;12.70;;;;;;;-1.10;79.29;98474.90;1682795;84;20955;-74
2022/04/05 04:57:59;;;;;;;26.25;12.73;;;;;;;-1.05;79.07;98479.77;1680259;84;21008;-79
2022/04/05 05:00:30;;;;;;;22.95;12.73;;;;;;;-1.00;79.06;98465.49;1682430;84;21162;-75
2022/04/05 05:03:03;;;;;;;24.70;13.32;;;;;;;-0.95;78.91;98467.39;1681135;84;21555;-78
2022/04/05 05:05:38;;;;;;;24.85;12.88;;;;;;;-0.91;78.87;98467.94;1681384;84;21472;-75
2022/04/05 05:08:10;;;;;;;21.93;12.50;;;;;;;-0.87;78.64;98460.94;1679779;83;21114;-72
2022/04/05 05:10:39;;;;;;;;;;;;;;;-0.82;78.37;98462.83;1682467;84;20988;-78
2022/04/05 05:13:09;;;;;;;21.90;11.83;;;;;;;-0.77;78.54;98458.80;1680419;84;21178;-72
2022/04/05 05:15:39;;;;;;;23.10;12.23;;;;;;;-0.73;78.46;98457.98;1679232;84;21007;-75
2022/04/05 05:18:09;;;;;;;22.52;12.78;;;;;;;-0.67;78.58;98454.22;1675422;85;20989;-78
2022/04/05 05:20:41;;;;;;;27.67;13.03;;;;;;;-0.59;78.27;98448.02;1675297;84;21002;-77
2022/04/05 05:23:09;;;;;;;21.85;12.58;;;;;;;-0.52;78.11;98448.53;1666937;85;20980;-76
2022/04/05 05:25:38;;;;;;;28.90;13.20;;;;;;;-0.44;78.51;98443.94;1708710;83;21484;-76
2022/04/05 05:28:15;;;;;;;28.15;14.65;;;;;;;-0.33;78.18;98438.81;1648854;85;21002;-76
2022/04/05 05:30:47;;;;;;;21.70;13.20;;;;;;;-0.24;77.24;98434.48;1734333;82;20935;-75
2022/04/05 05:33:17;;;;;;;25.30;14.38;;;;;;;-0.18;77.08;98430.70;1744916;80;20931;-85
2022/04/05 05:35:46;;;;;;;24.30;14.68;;;;;;;-0.08;76.50;98432.03;1690953;83;20992;-67
2022/04/05 05:38:13;;;;;;;21.37;13.18;;;;;;;-0.03;75.52;98418.53;1679224;84;21255;-74
2022/04/05 05:40:42;;;;;;;24.90;13.25;;;;;;;0.04;74.78;98414.16;1672211;83;21529;-79
2022/04/05 05:43:11;;;;;;;25.45;14.53;;;;;;;0.07;74.22;98416.85;1697467;83;21016;-78
2022/04/05 05:45:41;;;;;;;23.73;12.88;;;;;;;0.12;74.16;98416.30;1687547;83;21080;-75
2022/04/05 05:48:12;;;;;;;26.82;12.78;;;;;;;0.21;74.19;98407.09;1684202;84;21030;-78
2022/04/05 05:50:43;;;;;;;24.43;13.22;;;;;;;0.32;73.99;98416.77;1672661;83;21335;-74
2022/04/05 05:53:15;;;;;;;21.60;12.78;;;;;;;0.43;73.31;98414.83;1699362;83;21079;-78
2022/04/05 05:55:48;;;;;;;22.67;12.20;;;;;;;0.53;73.44;98408.03;1694408;83;21067;-71
2022/04/05 05:58:19;;;;;;;24.07;12.05;;;;;;;0.66;72.15;98403.34;1682537;83;20999;-74
2022/04/05 06:00:49;;;;;;;21.48;12.05;;;;;;;0.72;71.33;98402.77;1684814;83;21245;-76
2022/04/05 06:03:19;;;;;;;21.60;12.40;;;;;;;0.77;70.98;98401.39;1705828;83;20958;-79
2022/04/05 06:05:47;;;;;;;29.45;12.78;;;;;;;0.81;70.73;98405.15;1707498;83;21087;-74
2022/04/05 06:08:20;;;;;;;19.30;11.25;;;;;;;0.85;70.83;98403.50;1695070;83;21027;-70
2022/04/05 06:10:48;;;;;;;26.75;13.03;;;;;;;0.90;70.12;98400.22;1674355;85;20932;-73
2022/04/05 06:13:23;;;;;;;20.23;11.78;;;;;;;0.96;70.17;98397.75;1685337;83;20980;-71
2022/04/05 06:15:49;;;;;;;19.17;11.33;;;;;;;1.04;69.80;98400.95;1686519;83;23075;-73
2022/04/05 06:18:19;;;;;;;21.48;11.35;;;;;;;1.06;69.10;98395.52;1672210;82;20975;-74
2022/04/05 06:20:49;;;;;;;19.90;11.40;;;;;;;1.11;69.19;98396.03;1652049;85;21035;-67
2022/04/05 06:23:21;;;;;;;17.85;11.10;;;;;;;1.20;68.81;98387.55;1656512;85;21054;-68
2022/04/05 06:25:52;;;;;;;21.93;12.35;;;;;;;1.27;68.18;98382.08;1671509;84;20990;-68
2022/04/05 06:28:19;;;;;;;22.55;12.33;;;;;;;1.37;68.10;98383.09;1703525;82;21302;-80
2022/04/05 06:30:51;;;;;;;23.62;12.65;;;;;;;1.47;67.18;98381.65;1676784;83;21012;-69
2022/04/05 06:33:26;;;;;;;23.60;12.63;;;;;;;1.52;66.73;98370.23;1683319;84;21090;-72
2022/04/05 06:35:57;;;;;;;24.55;12.75;;;;;;;1.60;66.19;98372.87;1691717;83;20989;-76
2022/04/05 06:38:33;;;;;;;21.75;13.05;;;;;;;1.67;66.29;98371.18;1654335;85;20991;-76
2022/04/05 06:41:01;;;;;;;22.52;13.35;;;;;;;1.70;66.10;98366.00;1640442;86;22850;-74
2022/04/05 06:43:30;;;;;;;17.45;11.10;;;;;;;1.74;66.65;98361.60;1706348;83;20976;-75
2022/04/05 06:45:57;;;;;;;17.32;11.43;;;;;;;1.83;66.99;98355.83;1707080;83;21031;-73
2022/04/05 06:48:31;;;;;;;25.72;12.78;;;;;;;1.94;65.46;98366.80;1704252;83;21070;-81
2022/04/05 06:51:00;;;;;;;25.12;12.43;;;;;;;1.97;64.99;98365.41;1664332;83;21027;-72
2022/04/05 06:53:32;;;;;;;25.48;11.70;;;;;;;1.97;65.01;98359.45;1708247;82;21242;-71
2022/04/05 06:55:59;;;;;;;18.60;11.25;;;;;;;2.01;64.54;98352.11;1682762;82;21027;-73
2022/04/05 06:58:34;;;;;;;16.10;10.45;;;;;;;2.04;64.50;98350.98;1640562;85;21007;-71
2022/04/05 07:01:02;;;;;;;22.22;11.05;;;;;;;2.07;64.64;98350.41;1720901;82;21030;-75
2022/04/05 07:03:34;;;;;;;18.23;11.27;;;;;;;2.13;64.28;98356.57;1719884;82;21511;-70
2022/04/05 07:06:03;;;;;;;17.45;11.00;;;;;;;2.19;63.86;98351.35;1726404;82;21419;-79
2022/04/05 07:08:35;;;;;;;19.20;11.25;;;;;;;2.25;64.25;98343.42;1723489;82;20987;-76
2022/04/05 07:11:05;;;;;;;22.07;11.95;;;;;;;2.32;63.22;98335.72;1725241;82;20905;-68
2022/04/05 07:13:33;;;;;;;21.75;11.50;;;;;;;2.37;63.43;98355.97;1728137;82;21059;-72
2022/04/05 07:16:09;;;;;;;17.70;9.88;;;;;;;2.44;63.10;98338.00;1720840;82;20963;-77
2022/04/05 07:18:36;;;;;;;19.12;11.68;;;;;;;2.49;61.71;98344.16;1736269;82;21257;-68
2022/04/05 07:21:04;;;;;;;19.40;11.05;;;;;;;2.54;62.28;98342.73;1729976;82;20999;-88
2022/04/05 07:23:36;;;;;;;18.77;11.40;;;;;;;2.61;61.24;98345.88;1731738;81;20988;-71
2022/04/05 07:26:08;;;;;;;19.92;11.20;;;;;;;2.63;60.54;98346.95;1729073;82;21585;-77
2022/04/05 07:28:40;;;;;;;15.55;9.73;;;;;;;2.65;59.84;98340.14;1699256;82;20995;-68
2022/04/05 07:31:11;;;;;;;17.50;10.70;;;;;;;2.72;60.57;98338.97;1727565;82;21161;-71
2022/04/05 07:33:37;;;;;;;19.55;10.08;;;;;;;2.81;60.34;98343.98;1721145;82;21074;-72
2022/04/05 07:36:06;;;;;;;22.17;10.35;;;;;;;2.89;59.20;98351.42;1723800;82;20923;-79
2022/04/05 07:38:36;;;;;;;18.73;10.43;;;;;;;2.92;58.42;98345.41;1726576;82;20935;-75
2022/04/05 07:41:06;;;;;;;17.73;10.38;;;;;;;2.92;58.58;98353.54;1725921;82;20937;-74
2022/04/05 07:43:41;;;;;;;19.12;10.93;;;;;;;2.92;59.23;98355.70;1725686;82;21381;-75
2022/04/05 07:46:10;;;;;;;20.77;11.08;;;;;;;2.94;58.13;98354.86;1730172;82;21071;-73
2022/04/05 07:48:41;;;;;;;24.35;11.20;;;;;;;2.93;58.33;98345.11;1721123;82;20989;-75
2022/04/05 07:51:10;;;;;;;21.48;11.10;;;;;;;2.90;57.89;98350.31;1723660;82;21546;-74
2022/04/05 07:53:39;;;;;;;21.48;10.78;;;;;;;2.87;58.38;98351.74;1730958;82;21004;-78
2022/04/05 07:56:12;;;;;;;22.15;10.70;;;;;;;2.83;58.46;98350.72;1721072;81;21493;-76
2022/04/05 07:58:42;;;;;;;19.55;10.65;;;;;;;2.82;58.35;98325.27;1724529;81;21039;-81
2022/04/05 08:01:20;;;;;;;21.12;10.80;;;;;;;2.81;58.36;98348.05;1737150;82;21090;-84
2022/04/05 08:03:52;;;;;;;18.00;10.68;;;;;;;2.80;58.77;98329.63;1724191;81;21094;-80
2022/04/05 08:06:17;;;;;;;21.57;11.95;;;;;;;2.84;59.16;98334.71;1723323;82;21107;-86
2022/04/05 08:08:49;;;;;;;17.77;10.82;;;;;;;2.87;59.47;98323.83;1720916;82;21871;-87
2022/04/05 08:11:24;;;;;;;19.12;9.98;;;;;;;2.84;60.90;98338.77;1729178;81;20888;-85
2022/04/05 08:13:56;;;;;;;17.35;10.68;;;;;;;2.80;63.87;98332.33;1726004;82;20948;-73
2022/04/05 08:16:32;;;;;;;16.23;9.75;;;;;;;2.75;65.06;98322.92;1729999;82;21491;-75
2022/04/05 08:19:02;;;;;;;23.67;10.72;;;;;;;2.79;65.71;98324.50;1720799;81;21006;-74
2022/04/05 08:21:33;;;;;;;18.35;9.40;;;;;;;2.86;66.31;98326.28;1726940;82;20987;-73
2022/04/05 08:24:01;;;;;;;19.60;11.70;;;;;;;2.99;65.93;98320.89;1672271;83;21083;-75
2022/04/05 08:26:35;;;;;;;15.30;10.28;;;;;;;3.13;65.93;98310.09;1654489;85;20929;-72
2022/04/05 08:29:07;;;;;;;13.90;9.18;;;;;;;3.30;66.02;98304.91;1654431;84;21059;-73
2022/04/05 08:31:39;;;;;;;19.90;11.40;;;;;;;3.49;65.56;98310.80;1704502;83;21028;-72
2022/04/05 08:34:10;;;;;;;16.12;9.63;;;;;;;3.69;66.54;98298.77;1690388;83;21308;-74
2022/04/05 08:36:39;;;;;;;15.83;9.85;;;;;;;3.83;66.65;98301.73;1704390;82;20924;-74
2022/04/05 08:39:08;;;;;;;16.93;9.63;;;;;;;3.94;66.00;98300.43;1710764;82;20968;-85
2022/04/05 08:41:38;;;;;;;21.48;12.20;;;;;;;4.09;65.60;98304.72;1708127;83;21035;-80
2022/04/05 08:44:08;;;;;;;19.90;11.83;;;;;;;4.21;63.79;98298.77;1637742;85;21040;-73
2022/04/05 08:46:43;;;;;;;17.55;10.48;;;;;;;4.28;62.61;98304.59;1683351;85;21160;-73
2022/04/05 08:49:16;;;;;;;18.85;10.72;;;;;;;4.36;63.16;98288.94;1673790;85;20945;-83
2022/04/05 08:51:48;;;;;;;18.05;9.10;;;;;;;4.49;62.66;98300.88;1682320;83;21684;-78
2022/04/05 08:54:20;;;;;;;17.12;9.88;;;;;;;4.58;61.94;98291.70;1697040;83;21013;-69
2022/04/05 08:56:50;;;;;;;;;;;;;;;4.70;61.36;98283.53;1675384;82;21043;-67
2022/04/05 08:59:21;;;;;;;17.67;9.95;;;;;;;4.77;60.92;98287.98;1676420;83;21960;-67
2022/04/05 09:01:55;;;;;;;17.07;9.60;;;;;;;4.81;60.97;98293.86;1668708;84;21020;-68
2022/04/05 09:04:35;;;;;;;19.82;9.33;;;;;;;4.83;60.07;98276.67;1693611;82;21531;-69
2022/04/05 09:07:27;;;;;;;15.10;8.75;;;;;;;4.82;60.21;98287.86;1644376;83;21028;-69
2022/04/05 09:10:17;;;;;;;18.17;10.13;;;;;;;4.82;60.21;98287.86;1690196;82;21753;-67
2022/04/05 09:12:54;;;;;;;14.85;8.65;;;;;;;4.84;60.55;98289.72;1682392;82;21789;-69
2022/04/05 09:15:26;;;;;;;16.75;10.05;;;;;;;4.84;60.55;98289.72;1670193;85;20944;-68
2022/04/05 09:18:00;;;;;;;14.07;8.75;;;;;;;4.80;60.70;98294.97;1662642;84;20928;-68
2022/04/05 09:20:29;;;;;;;17.80;8.70;;;;;;;4.79;59.80;98289.84;1648573;85;21565;-67
2022/04/05 09:23:02;;;;;;;14.07;7.58;;;;;;;4.75;59.40;98295.64;1671776;84;21146;-67
2022/04/05 09:25:30;;;;;;;12.90;7.45;;;;;;;4.75;59.41;98291.01;1724383;82;20940;-67
2022/04/05 09:28:00;;;;;;;11.33;6.97;;;;;;;4.79;58.62;98285.76;1726128;82;21103;-84
2022/04/05 09:30:37;;;;;;;12.25;8.10;;;;;;;4.85;58.32;98288.61;1718460;82;20940;-66
2022/04/05 09:33:04;;;;;;;11.05;7.30;;;;;;;4.89;57.35;98289.59;1695371;83;26604;-69
2022/04/05 09:35:43;;;;;;;10.35;7.17;;;;;;;5.02;57.97;98296.09;1674366;83;21683;-67
2022/04/05 09:38:15;;;;;;;12.53;7.78;;;;;;;5.13;57.06;98292.80;1672194;84;21204;-67
2022/04/05 09:40:52;;;;;;;12.33;7.65;;;;;;;5.21;57.77;98267.55;1691633;83;21000;-68
2022/04/05 09:43:22;;;;;;;12.58;8.50;;;;;;;5.21;57.77;98267.55;1722414;82;21028;-68
2022/04/05 09:45:58;;;;;;;12.37;7.50;;;;;;;5.33;57.19;98286.02;1722696;82;21052;-77
2022/04/05 09:48:30;;;;;;;12.95;7.33;;;;;;;5.37;56.59;98273.95;1714380;81;21549;-72
2022/04/05 09:51:09;;;;;;;13.45;8.60;;;;;;;5.27;55.90;98278.55;1713931;81;21307;-70
2022/04/05 09:53:47;;;;;;;10.97;8.03;;;;;;;5.27;55.90;98278.55;1685015;84;21036;-70
2022/04/05 09:56:28;;;;;;;11.63;7.70;;;;;;;5.25;55.73;98266.36;1665223;85;21063;-69
2022/04/05 09:59:18;;;;;;;19.62;9.53;;;;;;;5.22;54.59;98271.06;1656596;85;21084;-83
2022/04/05 10:01:52;;;;;;;11.45;7.22;;;;;;;5.16;54.98;98266.34;1658050;85;20893;-66
2022/04/05 10:04:24;;;;;;;12.03;7.85;;;;;;;5.17;54.98;98268.51;1660373;84;21275;-70
2022/04/05 10:06:56;;;;;;;11.35;7.50;;;;;;;5.18;54.18;98258.67;1669427;85;20959;-70
2022/04/05 10:09:25;;;;;;;13.00;8.03;;;;;;;5.22;54.44;98256.10;1694648;84;20905;-71
2022/04/05 10:12:04;;;;;;;12.30;6.95;;;;;;;5.19;54.95;98259.48;1678666;83;21595;-74
2022/04/05 10:14:37;;;;;;;12.73;7.30;;;;;;;5.16;55.55;98262.82;1692259;83;21404;-68
2022/04/05 10:17:13;;;;;;;11.97;6.80;;;;;;;5.01;55.83;98265.92;1694301;83;21676;-68
2022/04/05 10:19:46;;;;;;;9.58;6.75;;;;;;;5.01;55.83;98265.92;1706349;83;20908;-68
2022/04/05 10:22:15;;;;;;;11.33;7.55;;;;;;;4.87;56.37;98257.83;1700127;83;20940;-67
2022/04/05 10:24:59;;;;;;;14.83;8.53;;;;;;;4.79;56.92;98268.09;1732614;80;20991;-67
2022/04/05 10:27:29;;;;;;;16.75;9.05;;;;;;;4.74;57.80;98258.13;1744295;82;21109;-66
2022/04/05 10:30:14;;;;;;;13.40;7.70;;;;;;;4.67;58.55;98241.45;1739052;81;21254;-65
2022/04/05 10:33:09;;;;;;;12.00;8.10;;;;;;;4.61;58.67;98251.67;1647218;82;21638;-66
2022/04/05 10:35:44;;;;;;;11.43;7.08;;;;;;;4.63;58.85;98243.17;1699068;82;20971;-67
2022/04/05 10:38:22;;;;;;;13.70;8.10;;;;;;;4.63;58.96;98243.17;1693549;82;21012;-66
2022/04/05 10:41:14;;;;;;;13.13;7.87;;;;;;;4.65;58.27;98237.68;1741095;80;21015;-66
2022/04/05 10:43:46;;;;;;;14.78;7.50;;;;;;;4.70;58.71;98233.23;1731320;82;21579;-66
2022/04/05 10:46:13;;;;;;;9.93;6.80;;;;;;;4.81;57.82;98219.64;1724162;82;21502;-67
2022/04/05 10:48:55;;;;;;;9.90;6.45;;;;;;;4.81;57.82;98219.64;1719506;82;21525;-66
2022/04/05 10:51:33;;;;;;;15.08;7.60;;;;;;;4.89;56.32;98209.37;1730093;82;21562;-66
2022/04/05 10:54:19;;;;;;;11.93;6.85;;;;;;;5.02;55.96;98207.69;1745654;80;20936;-74
2022/04/05 10:57:35;;;;;;;16.12;8.10;;;;;;;5.02;55.96;98207.69;1725834;82;20948;-81
2022/04/05 11:00:10;;;;;;;13.45;6.95;;;;;;;5.10;55.84;98193.34;1728017;82;20997;-81
2022/04/05 11:03:02;;;;;;;15.23;6.95;;;;;;;5.10;55.84;98193.34;1729972;82;21406;-65
2022/04/05 11:05:41;;;;;;;16.37;7.45;;;;;;;5.11;55.83;98205.27;1722615;81;21083;-66
2022/04/05 11:08:16;;;;;;;9.83;6.50;;;;;;;5.03;55.89;98184.82;1702024;82;21062;-65
2022/04/05 11:10:47;;;;;;;13.30;7.80;;;;;;;5.04;56.17;98188.59;1723547;82;21145;-66
2022/04/05 11:13:46;;;;;;;9.83;6.20;;;;;;;5.04;56.17;98188.59;1731869;82;20952;-75
2022/04/05 11:16:19;;;;;;;10.63;5.47;;;;;;;5.11;55.29;98187.59;1702750;82;21006;-76
2022/04/05 11:18:47;;;;;;;9.90;6.15;;;;;;;5.15;55.31;98177.69;1693287;83;20945;-75
2022/04/05 11:21:18;;;;;;;10.00;6.55;;;;;;;5.24;54.71;98187.22;1724614;82;21434;-77
2022/04/05 11:23:51;;;;;;;13.63;7.83;;;;;;;5.24;54.71;98187.22;1719437;82;21292;-72
2022/04/05 11:26:36;;;;;;;10.70;6.28;;;;;;;5.28;55.13;98184.91;1717661;82;21472;-70
2022/04/05 11:29:19;;;;;;;10.82;6.33;;;;;;;5.33;54.99;98179.89;1734385;82;20949;-70
2022/04/05 11:32:07;;;;;;;12.30;6.53;;;;;;;5.39;54.98;98176.47;1718957;80;20955;-71
2022/04/05 11:34:39;;;;;;;14.28;8.03;;;;;;;5.42;54.22;98163.59;1728227;82;21430;-71
2022/04/05 11:37:08;;;;;;;10.55;6.33;;;;;;;5.46;53.53;98156.41;1729983;82;21092;-70
2022/04/05 11:39:39;;;;;;;11.90;5.83;;;;;;;5.53;53.57;98159.47;1721861;82;20991;-74
2022/04/05 11:42:08;;;;;;;14.58;6.42;;;;;;;5.60;52.83;98155.17;1744059;80;20900;-73
2022/04/05 11:44:36;;;;;;;12.58;6.33;;;;;;;5.66;52.89;98154.45;1741176;82;21181;-73
2022/04/05 11:47:05;;;;;;;8.28;5.53;;;;;;;5.75;52.80;98153.92;1739781;82;20955;-73